Terminal Aerodrome Forecast
Issued by NWS

Home | Current Version | Previous Version | Text Only | Print | Product List | Glossary On
Versions: 1 2 3 4 5 6 7 8 9 10 11 12 13 14 15 16 17 18 19 20 21 22 23
000
FTUS41 KBGM 310500
TAFRME
TAF
KRME 310533Z 3106/0106 00000KT P6SM BKN040
     FM311400 12005KT P6SM SCT040 SCT120
     FM311900 12005KT P6SM OVC100
     FM010000 09005KT P6SM OVC040=

USA.gov is the U.S. government's official web portal to all federal, state and local government web resources and services.